Hlavní strana
METAR-TAF:

METAR-TAF

Letiště :

Lagos, Nigérie

zeměpisná šířka: 06-35N, zeměpisná délka: 003-20E, výška: 40 m

Aktuální stav počasí

Zpráva byla vytvořena před 42 minutami, v 07:00 UTC
Severozápadní vítr 4 kt
Teplota 25°C
Vlhkost vzduchu 94%
Tlak 1017 hPa
Viditelnost: 1500 m
Skoro jasno ve výšce 900 ft
kouřmo

METAR: DNMM 150700Z 32004KT 1500 BR FEW009 25/24 Q1017 TEMPO 3000 HZ

Čas: 08:42 (07:42 UTC)

Předpověď počasí

Zpráva byla vytvořena před 3 hodinami a 47 minutami, v 03:55 UTC
Předpověď platná od 15 v 06 UTC do 16 v 12 UTC
Západní vítr 4 kt
Viditelnost: 3500 m
Skoro jasno ve výšce 900 ft
kouřmo
Dočasný
od 15 v 07 UTC do 15 v 10 UTC
Viditelnost: 3000 m
zákal
Pravděpodobnost 30%
od 15 v 07 UTC do 16 v 09 UTC
Viditelnost: 1500 m
Změna
od 15 v 10 UTC do 15 v 12 UTC
Severní vítr 10 kt
Viditelnost: 6000 m
Polojasno ve výšce 1300 ft

TAF: DNMM 150355Z 1506/1612 28004KT 3500 BR FEW009 TEMPO 1507/1510 3000 HZ PROB30 1507/1609 1500 BECMG 1510/1512 35010KT 6000 NSW SCT013

Stav a předpovědi počasí z více než 4 000 letišť (zprávy METAR a TAF).

Červené a žluté tečky na mapě představují dostupné meteorologické stanice.

Když kurzor umístíte na tečku, zobrazí se název stanice.

Pak kliknutím zobrazíte stav a předpověď počasí.

Chcete-li změnit mapu, kliknutím na zelené tlačítko se znaménkem +mapu přiblížíte, kliknutím na zelené tlačítko se znaménkem – mapu oddálíte a kliknutím na zelené šipky přejdete na sousední mapy.


METAR-TAF: